Terminal Aerodrome Forecast
Issued by NWS

Home | Current Version | Previous Version | Text Only | Print | Product List | Glossary On
Versions: 1 2 3 4 5 6 7 8 9 10 11 12 13 14 15
000
FTPA31 PHFO 261342 AAA
TAFHNY
TAF AMD
PHNY 261342Z 2614/2712 05005KT P6SM FEW015 BKN030
     FM262100 05012KT P6SM SCT015 BKN025
     FM270200 05015G25KT P6SM FEW015 SCT025
      AMD NOT SKED=

USA.gov is the U.S. government's official web portal to all federal, state and local government web resources and services.